NCAR-RAP Real-Time Weather Data

Output produced by METARs form (10 April 2020  07:29 UTC)
found at http://weather.rap.ucar.edu/surface/
 
KALB 100651Z 28013KT 10SM FEW060 04/M04 A2923 RMK AO2 SLP901 T00391044